Terminal Aerodrome Forecast
Issued by NWS Northern Indiana

Home | Current Version | Previous Version | Text Only | Print | Product List | Glossary Off
Versions: 1 2 3 4 5 6 7 8 9 10 11 12 13 14 15 16 17

918
FTUS43 KIWX 060249 AAA
TAFFWA
TAF AMD
KFWA 060249Z 0603/0624 28007KT P6SM SCT015 OVC025
      TEMPO 0604/0606 SCT025 BKN035
     FM060600 24006KT P6SM SCT040 BKN100
     FM061600 24011KT P6SM SCT050=

USA.gov is the U.S. government's official web portal to all federal, state and local government web resources and services.